createdAt,value
2022-09-15T00:00:28.134Z,12.81
2022-09-15T00:03:20.369Z,12.81
2022-09-15T00:05:50.984Z,12.82
2022-09-15T00:08:21.403Z,12.78
2022-09-15T00:10:52.753Z,12.78
2022-09-15T00:13:23.971Z,12.78
2022-09-15T00:15:54.474Z,12.78
2022-09-15T00:18:26.603Z,12.78
2022-09-15T00:20:56.624Z,12.76
2022-09-15T00:23:27.171Z,12.76
2022-09-15T00:25:57.131Z,12.72
2022-09-15T00:28:27.221Z,12.72
2022-09-15T00:30:57.853Z,12.69
2022-09-15T00:33:29.455Z,12.70
2022-09-15T00:36:02.733Z,12.74
2022-09-15T00:38:33.684Z,12.72
2022-09-15T00:41:05.142Z,12.70
2022-09-15T00:43:50.862Z,12.73
2022-09-15T00:46:24.100Z,12.75
2022-09-15T00:49:01.170Z,12.71
2022-09-15T00:51:37.192Z,12.65
2022-09-15T00:54:12.369Z,12.60
2022-09-15T00:56:44.522Z,12.56
2022-09-15T00:59:19.580Z,12.50
2022-09-15T01:01:54.452Z,12.50
2022-09-15T01:04:26.290Z,12.50
2022-09-15T01:07:00.567Z,12.51
2022-09-15T01:09:33.994Z,12.46
2022-09-15T01:12:04.593Z,12.38
2022-09-15T01:14:34.543Z,12.30
2022-09-15T01:17:11.373Z,12.14
2022-09-15T01:20:06.074Z,11.97
2022-09-15T01:22:44.134Z,11.80
2022-09-15T01:25:30.126Z,11.68
2022-09-15T01:28:36.595Z,11.66
2022-09-15T01:31:15.753Z,11.59
2022-09-15T01:33:50.394Z,11.61
2022-09-15T01:36:24.917Z,11.62
2022-09-15T01:39:03.807Z,11.68
2022-09-15T01:41:43.274Z,11.69
2022-09-15T01:44:17.611Z,11.69
2022-09-15T01:46:54.444Z,11.65
2022-09-15T01:49:27.707Z,11.65
2022-09-15T01:51:58.017Z,11.71
2022-09-15T01:54:35.554Z,11.72
2022-09-15T01:57:06.095Z,11.74
2022-09-15T01:59:36.604Z,11.73
2022-09-15T02:02:12.775Z,11.70
2022-09-15T02:04:47.926Z,11.63
2022-09-15T02:07:27.489Z,11.59
2022-09-15T02:10:03.679Z,11.58
2022-09-15T02:12:39.517Z,11.51
2022-09-15T02:15:15.309Z,11.43
2022-09-15T02:17:50.849Z,11.23
2022-09-15T02:20:30.183Z,11.18
2022-09-15T02:23:08.378Z,11.03
2022-09-15T02:25:43.777Z,10.93
2022-09-15T02:28:15.738Z,10.86
2022-09-15T02:30:48.455Z,10.82
2022-09-15T02:33:24.445Z,10.75
2022-09-15T02:35:55.627Z,10.73
2022-09-15T02:38:30.885Z,10.71
2022-09-15T02:41:01.673Z,10.79
2022-09-15T02:43:32.026Z,10.75
2022-09-15T02:46:02.456Z,10.75
2022-09-15T02:48:33.845Z,10.68
2022-09-15T02:51:04.149Z,10.62
2022-09-15T02:53:34.385Z,10.66
2022-09-15T02:56:04.967Z,10.69
2022-09-15T02:58:35.245Z,10.67
2022-09-15T03:01:06.485Z,10.66
2022-09-15T03:03:42.772Z,10.66
2022-09-15T03:06:21.425Z,10.56
2022-09-15T03:08:53.925Z,10.56
2022-09-15T03:11:27.028Z,10.60
2022-09-15T03:13:58.446Z,10.66
2022-09-15T03:16:29.538Z,10.64
2022-09-15T03:19:02.415Z,10.71
2022-09-15T03:21:32.654Z,10.71
2022-09-15T03:24:03.061Z,10.62
2022-09-15T03:26:33.163Z,10.62
2022-09-15T03:29:03.031Z,10.63
2022-09-15T03:31:33.435Z,10.64
2022-09-15T03:34:04.902Z,10.67
2022-09-15T03:36:35.562Z,10.65
2022-09-15T03:39:05.494Z,10.65
2022-09-15T03:41:35.541Z,10.61
2022-09-15T03:44:06.292Z,10.65
2022-09-15T03:46:36.448Z,10.64
2022-09-15T03:49:08.392Z,10.73
2022-09-15T03:51:38.371Z,10.85
2022-09-15T03:54:08.901Z,10.91
2022-09-15T03:56:38.882Z,10.95
2022-09-15T03:59:10.069Z,11.04
2022-09-15T04:01:40.334Z,11.05
2022-09-15T04:04:12.112Z,11.09
2022-09-15T04:06:42.281Z,11.11
2022-09-15T04:09:12.513Z,11.09
2022-09-15T04:11:42.986Z,11.17
2022-09-15T04:14:13.374Z,11.25
2022-09-15T04:16:43.397Z,11.34
2022-09-15T04:19:14.860Z,11.52
2022-09-15T04:21:46.013Z,11.59
2022-09-15T04:24:16.313Z,11.65
2022-09-15T04:26:46.534Z,11.65
2022-09-15T04:29:17.935Z,11.77
2022-09-15T04:31:48.968Z,11.75
2022-09-15T04:34:20.472Z,11.74
2022-09-15T04:36:50.622Z,11.78
2022-09-15T04:39:20.888Z,11.78
2022-09-15T04:41:51.326Z,11.75
2022-09-15T04:44:21.386Z,11.75
2022-09-15T04:46:51.398Z,11.72
2022-09-15T04:49:23.258Z,11.75
2022-09-15T04:51:54.027Z,11.73
2022-09-15T04:54:24.687Z,11.70
2022-09-15T04:56:54.574Z,11.69
2022-09-15T04:59:27.958Z,11.70
2022-09-15T05:01:58.128Z,11.76
2022-09-15T05:04:29.979Z,11.80
2022-09-15T05:07:00.562Z,11.88
2022-09-15T05:09:31.357Z,11.95
2022-09-15T05:12:01.607Z,12.01
2022-09-15T05:14:31.618Z,12.06
2022-09-15T05:17:01.576Z,12.09
2022-09-15T05:19:33.906Z,12.11
2022-09-15T05:22:03.933Z,12.12
2022-09-15T05:24:36.874Z,12.14
2022-09-15T05:27:07.321Z,12.20
2022-09-15T05:29:37.463Z,12.23
2022-09-15T05:32:07.741Z,12.26
2022-09-15T05:34:40.180Z,12.32
2022-09-15T05:37:10.583Z,12.40
2022-09-15T05:39:41.394Z,12.46
2022-09-15T05:42:13.684Z,12.55
2022-09-15T05:44:44.021Z,12.70
2022-09-15T05:47:13.993Z,12.74
2022-09-15T05:49:45.559Z,12.86
2022-09-15T05:52:15.716Z,12.97
2022-09-15T05:54:46.192Z,13.05
2022-09-15T05:57:16.764Z,13.07
2022-09-15T05:59:46.694Z,13.03
2022-09-15T06:02:16.937Z,13.01
2022-09-15T06:04:48.475Z,13.02
2022-09-15T06:07:19.544Z,13.01
2022-09-15T06:09:49.523Z,12.99
2022-09-15T06:12:19.763Z,12.98
2022-09-15T06:14:51.254Z,13.00
2022-09-15T06:17:22.549Z,13.04
2022-09-15T06:19:53.948Z,13.04
2022-09-15T06:22:24.387Z,13.07
2022-09-15T06:24:54.448Z,13.15
2022-09-15T06:27:24.457Z,13.17
2022-09-15T06:29:55.215Z,13.22
2022-09-15T06:32:25.437Z,13.21
2022-09-15T06:34:57.427Z,13.20
2022-09-15T06:37:27.499Z,13.27
2022-09-15T06:39:57.861Z,13.31
2022-09-15T06:42:27.778Z,13.33
2022-09-15T06:44:58.596Z,13.38
2022-09-15T06:47:34.155Z,13.39
2022-09-15T06:50:06.535Z,13.43
2022-09-15T06:52:36.747Z,13.53
2022-09-15T06:55:07.968Z,13.56
2022-09-15T06:57:38.135Z,13.64
2022-09-15T07:00:10.214Z,13.73
2022-09-15T07:02:40.480Z,13.80
2022-09-15T07:05:12.499Z,13.93
2022-09-15T07:07:42.412Z,14.14
2022-09-15T07:10:12.857Z,14.17
2022-09-15T07:12:42.817Z,14.14
2022-09-15T07:15:13.498Z,14.17
2022-09-15T07:17:43.567Z,14.26
2022-09-15T07:20:15.135Z,14.88
2022-09-15T07:22:45.667Z,15.49
2022-09-15T07:25:15.650Z,16.19
2022-09-15T07:27:45.958Z,16.79
2022-09-15T07:30:16.586Z,16.38
2022-09-15T07:32:46.719Z,16.62
2022-09-15T07:35:19.018Z,17.24
2022-09-15T07:37:49.068Z,16.79
2022-09-15T07:40:19.598Z,16.52
2022-09-15T07:42:49.530Z,16.44
2022-09-15T07:45:19.574Z,16.19
2022-09-15T07:47:49.931Z,16.08
2022-09-15T07:50:21.401Z,16.28
2022-09-15T07:52:51.591Z,16.41
2022-09-15T07:55:21.618Z,17.77
2022-09-15T07:58:00.126Z,17.65
2022-09-15T08:00:30.569Z,17.85
2022-09-15T08:03:00.966Z,17.55
2022-09-15T08:05:36.253Z,17.03
2022-09-15T08:08:09.448Z,16.52
2022-09-15T08:10:41.596Z,16.06
2022-09-15T08:13:11.866Z,16.01
2022-09-15T08:15:41.844Z,15.86
2022-09-15T08:18:12.358Z,15.85
2022-09-15T08:20:44.628Z,15.73
2022-09-15T08:23:15.089Z,15.76
2022-09-15T08:25:45.533Z,15.66
2022-09-15T08:28:15.668Z,15.49
2022-09-15T08:30:45.597Z,15.41
2022-09-15T08:33:15.818Z,15.48
2022-09-15T08:35:47.151Z,15.63
2022-09-15T08:38:17.477Z,15.60
2022-09-15T08:40:48.679Z,15.67
2022-09-15T08:43:28.847Z,15.79
2022-09-15T08:46:05.666Z,15.84
2022-09-15T08:48:42.455Z,15.92
2022-09-15T08:51:21.476Z,15.79
2022-09-15T08:53:58.007Z,15.71
2022-09-15T08:56:30.661Z,15.80
2022-09-15T08:59:01.466Z,15.83
2022-09-15T09:02:01.840Z,15.77
2022-09-15T09:05:15.159Z,16.09
2022-09-15T09:08:23.667Z,16.29
2022-09-15T09:11:00.570Z,16.28
2022-09-15T09:13:39.248Z,16.33
2022-09-15T09:16:37.682Z,16.61
2022-09-15T09:19:36.256Z,16.49
2022-09-15T09:22:11.868Z,16.53
2022-09-15T09:24:46.589Z,16.46
2022-09-15T09:27:18.668Z,16.71
2022-09-15T09:29:50.728Z,16.66
2022-09-15T09:32:24.848Z,16.84
2022-09-15T09:35:03.250Z,17.20
2022-09-15T09:37:34.657Z,17.21
2022-09-15T09:40:06.782Z,17.44
2022-09-15T09:42:38.206Z,17.49
2022-09-15T09:45:09.168Z,17.71
2022-09-15T09:47:40.908Z,18.02
2022-09-15T09:50:39.227Z,17.97
2022-09-15T09:53:33.998Z,17.47
2022-09-15T09:56:24.809Z,17.55
2022-09-15T09:58:56.178Z,17.26
2022-09-15T10:01:28.100Z,16.96
2022-09-15T10:04:19.171Z,16.91
2022-09-15T10:06:49.599Z,17.00
2022-09-15T10:09:21.291Z,17.39
2022-09-15T10:11:56.311Z,16.91
2022-09-15T10:14:31.287Z,16.91
2022-09-15T10:17:03.103Z,17.29
2022-09-15T10:19:37.007Z,17.09
2022-09-15T10:22:07.467Z,17.49
2022-09-15T10:24:41.336Z,17.58
2022-09-15T10:27:33.568Z,17.53
2022-09-15T10:30:20.079Z,17.80
2022-09-15T10:32:50.132Z,17.63
2022-09-15T10:35:22.098Z,17.52
2022-09-15T10:38:06.278Z,17.47
2022-09-15T10:40:44.020Z,17.67
2022-09-15T10:43:48.099Z,18.07
2022-09-15T10:46:29.118Z,18.16
2022-09-15T10:49:16.908Z,17.67
2022-09-15T10:51:59.894Z,17.58
2022-09-15T10:54:53.548Z,17.55
2022-09-15T10:57:40.180Z,17.66
2022-09-15T11:00:15.388Z,17.48
2022-09-15T11:03:13.663Z,17.38
2022-09-15T11:06:04.439Z,17.45
2022-09-15T11:08:57.338Z,17.53
2022-09-15T11:11:36.860Z,17.35
2022-09-15T11:14:22.910Z,17.33
2022-09-15T11:17:05.437Z,17.15
2022-09-15T11:19:53.798Z,16.92
2022-09-15T11:22:29.746Z,16.83
2022-09-15T11:25:04.669Z,16.89
2022-09-15T11:27:41.638Z,16.99
2022-09-15T11:30:20.384Z,16.85
2022-09-15T11:32:58.190Z,16.91
2022-09-15T11:35:44.346Z,16.77
2022-09-15T11:38:30.868Z,16.62
2022-09-15T11:41:22.469Z,16.61
2022-09-15T11:44:16.063Z,16.41
2022-09-15T11:46:58.958Z,16.02
2022-09-15T11:49:33.058Z,15.97
2022-09-15T11:52:10.339Z,16.06
2022-09-15T11:54:47.516Z,15.77
2022-09-15T11:57:23.192Z,15.53
2022-09-15T11:59:59.416Z,15.66
2022-09-15T12:02:34.668Z,15.88
2022-09-15T12:05:16.656Z,16.36
2022-09-15T12:07:53.349Z,16.53
2022-09-15T12:10:28.515Z,16.31
2022-09-15T12:13:02.766Z,16.53
2022-09-15T12:15:33.708Z,16.62
2022-09-15T12:18:39.849Z,16.68
2022-09-15T12:21:19.946Z,16.53
2022-09-15T12:23:59.756Z,16.48
2022-09-15T12:26:30.527Z,16.64
2022-09-15T12:29:03.306Z,16.40
2022-09-15T12:31:36.091Z,16.28
2022-09-15T12:34:28.726Z,16.32
2022-09-15T12:37:10.618Z,16.47
2022-09-15T12:39:43.338Z,16.45
2022-09-15T12:42:20.626Z,16.51
2022-09-15T12:44:55.318Z,16.69
2022-09-15T12:47:33.367Z,16.93
2022-09-15T12:50:09.000Z,17.27
2022-09-15T12:52:49.686Z,17.27
2022-09-15T12:55:25.613Z,17.00
2022-09-15T12:58:00.390Z,17.08
2022-09-15T13:00:42.344Z,16.86
2022-09-15T13:03:51.180Z,16.86
2022-09-15T13:06:26.086Z,16.69
2022-09-15T13:09:27.649Z,16.77
2022-09-15T13:11:58.912Z,16.72
2022-09-15T13:14:38.320Z,16.73
2022-09-15T13:17:15.071Z,16.62
2022-09-15T13:19:48.881Z,16.81
2022-09-15T13:22:30.226Z,16.92
2022-09-15T13:25:06.501Z,16.82
2022-09-15T13:27:39.957Z,17.40
2022-09-15T13:30:27.129Z,18.10
2022-09-15T13:33:05.616Z,17.46
2022-09-15T13:35:48.098Z,17.36
2022-09-15T13:38:57.019Z,16.87
2022-09-15T13:41:46.849Z,16.68
2022-09-15T13:44:45.209Z,16.44
2022-09-15T13:47:31.773Z,16.32
2022-09-15T13:50:13.448Z,16.37
2022-09-15T13:52:56.576Z,16.31
2022-09-15T13:55:29.187Z,16.25
2022-09-15T14:01:04.899Z,16.23
2022-09-15T14:03:42.464Z,16.16
2022-09-15T14:06:19.672Z,16.08
2022-09-15T14:08:53.210Z,16.11
2022-09-15T14:11:28.400Z,15.95
2022-09-15T14:14:01.036Z,15.94
2022-09-15T14:16:35.207Z,15.91
2022-09-15T14:19:23.407Z,15.86
2022-09-15T14:21:58.341Z,15.91
2022-09-15T14:24:31.166Z,15.94
2022-09-15T14:27:09.360Z,16.15
2022-09-15T14:29:44.616Z,16.39
2022-09-15T14:32:17.388Z,16.34
2022-09-15T14:37:27.934Z,16.41
2022-09-15T14:39:59.958Z,16.37
2022-09-15T14:42:32.912Z,16.20
2022-09-15T14:48:09.727Z,16.23
2022-09-15T14:50:39.737Z,16.11
2022-09-15T14:53:13.749Z,16.06
2022-09-15T14:55:52.466Z,16.02
2022-09-15T14:58:28.878Z,16.06
2022-09-15T15:01:04.974Z,16.02
2022-09-15T15:03:40.096Z,15.96
2022-09-15T15:06:28.853Z,15.98
2022-09-15T15:09:04.238Z,15.87
2022-09-15T15:11:36.668Z,15.91
2022-09-15T15:14:09.703Z,15.96
2022-09-15T15:16:53.739Z,15.91
2022-09-15T15:19:34.676Z,15.78
2022-09-15T15:22:18.955Z,15.78
2022-09-15T15:24:53.057Z,15.82
2022-09-15T15:27:45.136Z,15.77
2022-09-15T15:30:34.355Z,15.72
2022-09-15T15:33:08.065Z,15.69
2022-09-15T15:35:38.307Z,15.65
2022-09-15T15:38:16.026Z,15.63
2022-09-15T15:40:47.758Z,15.62
2022-09-15T15:43:25.416Z,15.54
2022-09-15T15:46:01.322Z,15.51
2022-09-15T15:48:37.855Z,15.50
2022-09-15T15:51:09.624Z,15.38
2022-09-15T15:53:40.434Z,15.33
2022-09-15T15:56:10.946Z,15.25
2022-09-15T15:58:41.026Z,15.15
2022-09-15T16:01:14.415Z,15.13
2022-09-15T16:03:46.126Z,15.04
2022-09-15T16:06:17.176Z,15.00
2022-09-15T16:08:47.994Z,14.91
2022-09-15T16:11:21.460Z,14.84
2022-09-15T16:13:54.797Z,14.79
2022-09-15T16:16:27.051Z,14.86
2022-09-15T16:18:59.104Z,14.79
2022-09-15T16:21:37.233Z,14.68
2022-09-15T16:24:08.905Z,14.68
2022-09-15T16:26:40.498Z,14.54
2022-09-15T16:29:11.373Z,14.46
2022-09-15T16:31:43.235Z,14.33
2022-09-15T16:34:19.725Z,14.34
2022-09-15T16:36:50.180Z,14.29
2022-09-15T16:39:20.467Z,14.33
2022-09-15T16:41:50.947Z,14.34
2022-09-15T16:44:22.249Z,14.25
2022-09-15T16:46:52.411Z,14.21
2022-09-15T16:49:24.437Z,14.15
2022-09-15T16:51:54.615Z,14.04
2022-09-15T16:54:25.037Z,13.94
2022-09-15T16:56:54.846Z,13.86
2022-09-15T16:59:25.725Z,13.75
2022-09-15T17:01:57.529Z,13.75
2022-09-15T17:04:29.102Z,13.71
2022-09-15T17:06:59.466Z,13.60
2022-09-15T17:09:29.846Z,13.50
2022-09-15T17:12:00.531Z,13.45
2022-09-15T17:14:31.037Z,13.36
2022-09-15T17:17:01.474Z,13.36
2022-09-15T17:19:33.345Z,13.31
2022-09-15T17:22:04.694Z,13.28
2022-09-15T17:24:35.304Z,13.23
2022-09-15T17:27:05.885Z,13.15
2022-09-15T17:29:38.648Z,13.05
2022-09-15T17:32:10.416Z,13.03
2022-09-15T17:34:42.071Z,12.94
2022-09-15T17:37:13.275Z,12.89
2022-09-15T17:39:43.596Z,12.84
2022-09-15T17:42:13.826Z,12.76
2022-09-15T17:44:43.835Z,12.70
2022-09-15T17:47:14.796Z,12.60
2022-09-15T17:49:47.158Z,12.57
2022-09-15T17:52:18.177Z,12.55
2022-09-15T17:54:51.375Z,12.61
2022-09-15T17:57:26.315Z,12.67
2022-09-15T17:59:56.447Z,12.62
2022-09-15T18:02:26.659Z,12.64
2022-09-15T18:04:58.576Z,12.64
2022-09-15T18:07:29.634Z,12.58
2022-09-15T18:10:00.166Z,12.49
2022-09-15T18:12:30.681Z,12.46
2022-09-15T18:15:00.630Z,12.37
2022-09-15T18:17:30.741Z,12.36
2022-09-15T18:20:03.682Z,12.31
2022-09-15T18:22:36.746Z,12.28
2022-09-15T18:25:25.232Z,12.25
2022-09-15T18:27:56.602Z,12.14
2022-09-15T18:30:29.290Z,12.08
2022-09-15T18:33:00.622Z,11.96
2022-09-15T18:35:32.552Z,11.87
2022-09-15T18:38:03.832Z,11.85
2022-09-15T18:40:35.652Z,11.78
2022-09-15T18:43:05.873Z,11.74
2022-09-15T18:45:36.934Z,11.65
2022-09-15T18:48:12.010Z,11.60
2022-09-15T18:50:46.752Z,11.54
2022-09-15T18:53:20.357Z,11.48
2022-09-15T18:55:53.639Z,11.43
2022-09-15T18:58:25.190Z,11.43
2022-09-15T19:01:00.462Z,11.39
2022-09-15T19:03:30.543Z,11.38
2022-09-15T19:06:06.363Z,11.35
2022-09-15T19:08:37.150Z,11.25
2022-09-15T19:11:07.723Z,11.19
2022-09-15T19:13:37.601Z,11.13
2022-09-15T19:16:08.849Z,11.13
2022-09-15T19:18:39.171Z,11.05
2022-09-15T19:21:13.203Z,11.07
2022-09-15T19:23:43.490Z,11.13
2022-09-15T19:26:17.193Z,11.15
2022-09-15T19:28:51.852Z,11.21
2022-09-15T19:31:22.095Z,11.25
2022-09-15T19:33:52.858Z,11.19
2022-09-15T19:36:28.288Z,11.20
2022-09-15T19:39:00.580Z,11.24
2022-09-15T19:41:30.767Z,11.16
2022-09-15T19:44:09.448Z,11.15
2022-09-15T19:47:03.753Z,11.14
2022-09-15T19:49:37.687Z,11.05
2022-09-15T19:52:11.192Z,11.05
2022-09-15T19:54:41.560Z,10.99
2022-09-15T19:57:12.779Z,10.89
2022-09-15T19:59:45.002Z,10.84
2022-09-15T20:02:15.077Z,10.80
2022-09-15T20:04:46.118Z,10.77
2022-09-15T20:07:17.668Z,10.88
2022-09-15T20:09:48.197Z,10.93
2022-09-15T20:12:18.309Z,10.96
2022-09-15T20:14:48.382Z,10.93
2022-09-15T20:17:18.727Z,10.89
2022-09-15T20:19:48.687Z,10.86
2022-09-15T20:22:21.158Z,10.84
2022-09-15T20:24:51.455Z,10.83
2022-09-15T20:27:21.871Z,10.84
2022-09-15T20:29:52.297Z,10.81
2022-09-15T20:32:28.031Z,10.84
2022-09-15T20:34:59.233Z,10.85
2022-09-15T20:37:35.264Z,10.93
2022-09-15T20:40:09.614Z,11.05
2022-09-15T20:42:40.027Z,11.12
2022-09-15T20:45:12.167Z,11.22
2022-09-15T20:47:42.469Z,11.31
2022-09-15T20:50:12.598Z,11.45
2022-09-15T20:52:44.827Z,11.49
2022-09-15T20:55:14.577Z,11.50
2022-09-15T20:57:44.858Z,11.56
2022-09-15T21:00:16.117Z,11.61
2022-09-15T21:02:52.215Z,11.59
2022-09-15T21:05:22.327Z,11.60
2022-09-15T21:07:54.087Z,11.64
2022-09-15T21:10:25.308Z,11.71
2022-09-15T21:12:56.088Z,11.73
2022-09-15T21:15:26.976Z,11.80
2022-09-15T21:17:58.494Z,11.84
2022-09-15T21:20:28.907Z,11.83
2022-09-15T21:23:00.697Z,11.84
2022-09-15T21:25:30.326Z,11.89
2022-09-15T21:28:00.546Z,11.85
2022-09-15T21:30:30.768Z,11.86
2022-09-15T21:33:01.456Z,11.90
2022-09-15T21:35:32.990Z,11.88
2022-09-15T21:38:04.800Z,11.85
2022-09-15T21:40:35.369Z,11.75
2022-09-15T21:43:05.578Z,11.76
2022-09-15T21:45:35.765Z,11.78
2022-09-15T21:48:07.475Z,11.81
2022-09-15T21:50:37.554Z,11.79
2022-09-15T21:53:09.296Z,11.79
2022-09-15T21:55:40.496Z,11.79
2022-09-15T21:58:10.825Z,11.79
2022-09-15T22:00:41.681Z,11.74
2022-09-15T22:03:12.455Z,11.73
2022-09-15T22:05:42.949Z,11.70
2022-09-15T22:08:16.621Z,11.66
2022-09-15T22:10:47.051Z,11.66
2022-09-15T22:13:17.361Z,11.62
2022-09-15T22:15:47.491Z,11.58
2022-09-15T22:18:17.549Z,11.54
2022-09-15T22:20:47.929Z,11.51
2022-09-15T22:23:19.629Z,11.47
2022-09-15T22:25:49.899Z,11.41
2022-09-15T22:28:19.909Z,11.49
2022-09-15T22:30:50.129Z,11.43
2022-09-15T22:33:21.199Z,11.40
2022-09-15T22:35:51.310Z,11.41
2022-09-15T22:38:23.377Z,11.39
2022-09-15T22:40:53.712Z,11.34
2022-09-15T22:43:24.189Z,11.31
2022-09-15T22:45:54.379Z,11.24
2022-09-15T22:48:24.519Z,11.25
2022-09-15T22:50:54.797Z,11.32
2022-09-15T22:53:26.492Z,11.28
2022-09-15T22:56:08.096Z,11.36
2022-09-15T22:58:39.408Z,11.43
2022-09-15T23:01:13.678Z,11.42
2022-09-15T23:03:53.049Z,11.42
2022-09-15T23:06:23.814Z,11.42
2022-09-15T23:08:57.189Z,11.41
2022-09-15T23:11:29.354Z,11.41
2022-09-15T23:13:59.661Z,11.37
2022-09-15T23:16:31.263Z,11.42
2022-09-15T23:19:02.809Z,11.43
2022-09-15T23:21:32.822Z,11.48
2022-09-15T23:24:05.130Z,11.51
2022-09-15T23:26:35.226Z,11.48
2022-09-15T23:29:05.215Z,11.45
2022-09-15T23:31:35.202Z,11.38
2022-09-15T23:34:06.268Z,11.38
2022-09-15T23:36:36.489Z,11.33
2022-09-15T23:39:08.317Z,11.27
2022-09-15T23:41:39.446Z,11.22
2022-09-15T23:44:09.468Z,11.19
2022-09-15T23:46:39.439Z,11.19
2022-09-15T23:49:09.430Z,11.11
2022-09-15T23:51:39.544Z,11.05
2022-09-15T23:54:11.629Z,11.00
2022-09-15T23:56:41.867Z,10.96
2022-09-15T23:59:11.906Z,10.92
